createdAt,value
2019-05-28T00:01:23.169Z,101197.27
2019-05-28T00:03:55.991Z,101197.91
2019-05-28T00:06:28.339Z,101200.41
2019-05-28T00:09:00.721Z,101198.45
2019-05-28T00:11:33.347Z,101205.08
2019-05-28T00:14:05.864Z,101206.80
2019-05-28T00:16:38.298Z,101184.64
2019-05-28T00:19:10.571Z,101207.30
2019-05-28T00:21:42.962Z,101205.98
2019-05-28T00:24:16.441Z,101207.44
2019-05-28T00:26:49.249Z,101211.73
2019-05-28T00:29:21.809Z,101208.52
2019-05-28T00:31:54.544Z,101210.48
2019-05-28T00:34:27.587Z,101210.48
2019-05-28T00:37:00.258Z,101211.84
2019-05-28T00:39:33.414Z,101216.91
2019-05-28T00:42:06.129Z,101218.67
2019-05-28T00:44:38.503Z,101225.50
2019-05-28T00:47:12.415Z,101221.98
2019-05-28T00:49:44.651Z,101221.20
2019-05-28T00:52:17.170Z,101221.62
2019-05-28T00:54:49.781Z,101224.70
2019-05-28T00:57:23.153Z,101223.18
2019-05-28T00:59:56.255Z,101227.46
2019-05-28T01:02:28.603Z,101220.73
2019-05-28T01:05:01.462Z,101223.30
2019-05-28T01:07:34.133Z,101224.77
2019-05-28T01:10:09.434Z,101220.94
2019-05-28T01:12:41.680Z,101219.95
2019-05-28T01:15:14.687Z,101215.44
2019-05-28T01:17:47.245Z,101218.12
2019-05-28T01:20:19.826Z,101218.14
2019-05-28T01:22:52.402Z,101222.53
2019-05-28T01:25:24.950Z,101224.88
2019-05-28T01:27:57.458Z,101220.70
2019-05-28T01:30:29.776Z,101223.80
2019-05-28T01:33:02.719Z,101228.25
2019-05-28T01:35:35.097Z,101224.56
2019-05-28T01:38:08.602Z,101226.59
2019-05-28T01:40:41.258Z,101221.19
2019-05-28T01:43:13.752Z,101223.04
2019-05-28T01:45:46.159Z,101216.37
2019-05-28T01:48:18.743Z,101218.11
2019-05-28T01:50:51.514Z,101223.00
2019-05-28T01:53:23.822Z,101217.26
2019-05-28T01:55:56.379Z,101210.91
2019-05-28T01:58:29.023Z,101218.05
2019-05-28T02:01:12.219Z,101210.87
2019-05-28T02:03:35.808Z,101222.53
2019-05-28T02:06:08.522Z,101216.77
2019-05-28T02:08:40.805Z,101218.48
2019-05-28T02:11:13.025Z,101217.98
2019-05-28T02:13:45.769Z,101221.90
2019-05-28T02:16:18.112Z,101222.57
2019-05-28T02:18:51.929Z,101221.33
2019-05-28T02:21:24.392Z,101222.75
2019-05-28T02:23:57.980Z,101228.95
2019-05-28T02:26:31.078Z,101232.88
2019-05-28T02:29:04.119Z,101229.70
2019-05-28T02:31:36.679Z,101231.83
2019-05-28T02:34:09.569Z,101238.81
2019-05-28T02:36:42.096Z,101243.31
2019-05-28T02:39:15.084Z,101247.23
2019-05-28T02:41:47.990Z,101245.03
2019-05-28T02:44:20.350Z,101243.80
2019-05-28T02:46:53.021Z,101241.88
2019-05-28T02:49:26.291Z,101241.98
2019-05-28T02:51:58.965Z,101238.34
2019-05-28T02:54:31.686Z,101244.70
2019-05-28T02:57:14.395Z,101244.73
2019-05-28T02:59:49.843Z,101245.72
2019-05-28T03:02:24.949Z,101249.10
2019-05-28T03:05:01.305Z,101251.81
2019-05-28T03:07:34.908Z,101252.55
2019-05-28T03:10:08.307Z,101255.39
2019-05-28T03:12:40.839Z,101254.13
2019-05-28T03:15:13.923Z,101254.73
2019-05-28T03:17:48.065Z,101262.84
2019-05-28T03:20:21.741Z,101250.36
2019-05-28T03:22:55.356Z,101256.38
2019-05-28T03:25:28.203Z,101248.89
2019-05-28T03:28:00.616Z,101255.19
2019-05-28T03:30:33.283Z,101253.43
2019-05-28T03:33:05.765Z,101256.14
2019-05-28T03:35:40.567Z,101262.28
2019-05-28T03:38:14.555Z,101264.00
2019-05-28T03:40:47.904Z,101267.86
2019-05-28T03:43:20.171Z,101267.70
2019-05-28T03:45:52.833Z,101267.39
2019-05-28T03:48:25.113Z,101269.66
2019-05-28T03:50:58.824Z,101267.43
2019-05-28T03:53:31.161Z,101267.66
2019-05-28T03:56:03.611Z,101267.08
2019-05-28T03:58:36.058Z,101268.48
2019-05-28T04:01:08.765Z,101270.58
2019-05-28T04:03:41.167Z,101262.78
2019-05-28T04:06:15.080Z,101273.66
2019-05-28T04:08:47.488Z,101269.72
2019-05-28T04:11:19.964Z,101276.45
2019-05-28T04:13:52.190Z,101268.52
2019-05-28T04:16:24.716Z,101261.71
2019-05-28T04:18:57.148Z,101274.39
2019-05-28T04:21:31.415Z,101277.13
2019-05-28T04:24:03.176Z,101277.76
2019-05-28T04:26:36.800Z,101277.75
2019-05-28T04:29:09.966Z,101277.52
2019-05-28T04:31:42.744Z,101281.59
2019-05-28T04:34:15.120Z,101288.17
2019-05-28T04:36:47.638Z,101290.72
2019-05-28T04:39:20.378Z,101290.32
2019-05-28T04:41:52.770Z,101290.83
2019-05-28T04:44:25.308Z,101295.14
2019-05-28T04:46:57.786Z,101294.73
2019-05-28T04:49:31.372Z,101296.09
2019-05-28T04:52:05.496Z,101297.09
2019-05-28T04:54:39.127Z,101295.56
2019-05-28T04:57:11.484Z,101307.44
2019-05-28T04:59:43.874Z,101302.86
2019-05-28T05:02:16.183Z,101297.41
2019-05-28T05:04:48.704Z,101300.63
2019-05-28T05:07:22.882Z,101304.66
2019-05-28T05:09:56.183Z,101301.47
2019-05-28T05:12:30.763Z,101302.61
2019-05-28T05:15:04.396Z,101300.27
2019-05-28T05:17:37.045Z,101311.47
2019-05-28T05:20:11.895Z,101302.00
2019-05-28T05:22:44.615Z,101306.78
2019-05-28T05:25:17.444Z,101308.98
2019-05-28T05:27:50.314Z,101313.02
2019-05-28T05:30:22.738Z,101316.61
2019-05-28T05:32:55.540Z,101320.58
2019-05-28T05:35:29.269Z,101318.64
2019-05-28T05:38:01.925Z,101315.80
2019-05-28T05:40:34.476Z,101320.70
2019-05-28T05:43:06.880Z,101320.14
2019-05-28T05:45:39.403Z,101317.20
2019-05-28T05:48:11.923Z,101319.08
2019-05-28T05:50:45.376Z,101318.09
2019-05-28T05:53:18.673Z,101320.06
2019-05-28T05:55:51.069Z,101317.01
2019-05-28T05:58:23.414Z,101319.41
2019-05-28T06:00:55.767Z,101315.52
2019-05-28T06:03:40.410Z,101320.66
2019-05-28T06:06:05.568Z,101327.59
2019-05-28T06:08:38.139Z,101326.28
2019-05-28T06:11:10.677Z,101326.56
2019-05-28T06:13:43.506Z,101323.70
2019-05-28T06:16:16.116Z,101331.22
2019-05-28T06:18:48.997Z,101326.72
2019-05-28T06:21:21.511Z,101335.63
2019-05-28T06:23:55.150Z,101334.25
2019-05-28T06:26:27.774Z,101327.78
2019-05-28T06:29:01.468Z,101329.95
2019-05-28T06:31:34.091Z,101329.16
2019-05-28T06:34:08.729Z,101332.91
2019-05-28T06:36:41.016Z,101336.04
2019-05-28T06:39:13.724Z,101324.23
2019-05-28T06:41:46.213Z,101326.50
2019-05-28T06:44:20.689Z,101340.19
2019-05-28T06:46:53.357Z,101331.03
2019-05-28T06:49:26.864Z,101329.72
2019-05-28T06:51:59.405Z,101334.55
2019-05-28T06:54:35.845Z,101335.20
2019-05-28T06:57:22.293Z,101333.72
2019-05-28T06:59:42.551Z,101333.30
2019-05-28T07:02:14.876Z,101331.98
2019-05-28T07:04:52.728Z,101336.11
2019-05-28T07:07:25.236Z,101330.66
2019-05-28T07:09:57.550Z,101330.32
2019-05-28T07:12:30.109Z,101325.78
2019-05-28T07:15:02.514Z,101332.96
2019-05-28T07:17:37.074Z,101335.33
2019-05-28T07:20:13.816Z,101338.27
2019-05-28T07:22:46.197Z,101334.36
2019-05-28T07:25:20.382Z,101326.84
2019-05-28T07:28:09.790Z,101322.69
2019-05-28T07:30:28.097Z,101325.16
2019-05-28T07:33:01.954Z,101327.73
2019-05-28T07:35:45.917Z,101328.40
2019-05-28T07:38:12.994Z,101324.55
2019-05-28T07:40:45.290Z,101318.92
2019-05-28T07:43:17.639Z,101324.32
2019-05-28T07:45:49.722Z,101328.92
2019-05-28T07:48:23.522Z,101327.50
2019-05-28T07:50:57.058Z,101329.37
2019-05-28T07:53:39.612Z,101329.37
2019-05-28T07:56:03.937Z,101325.56
2019-05-28T07:58:38.586Z,101325.73
2019-05-28T08:01:11.336Z,101330.09
2019-05-28T08:03:44.621Z,101322.68
2019-05-28T08:06:17.104Z,101328.52
2019-05-28T08:08:50.795Z,101330.88
2019-05-28T08:11:23.699Z,101326.11
2019-05-28T08:13:56.896Z,101320.19
2019-05-28T08:16:29.264Z,101321.44
2019-05-28T08:19:01.664Z,101320.61
2019-05-28T08:21:36.371Z,101323.59
2019-05-28T08:24:09.530Z,101323.09
2019-05-28T08:26:42.950Z,101327.33
2019-05-28T08:29:15.075Z,101320.73
2019-05-28T08:31:47.729Z,101317.95
2019-05-28T08:34:21.916Z,101317.28
2019-05-28T08:37:05.877Z,101318.06
2019-05-28T08:39:33.694Z,101316.19
2019-05-28T08:42:06.850Z,101320.06
2019-05-28T08:44:40.191Z,101318.75
2019-05-28T08:47:12.579Z,101318.97
2019-05-28T08:49:45.016Z,101312.84
2019-05-28T08:52:18.553Z,101315.33
2019-05-28T08:54:51.998Z,101315.33
2019-05-28T08:57:25.829Z,101320.13
2019-05-28T08:59:58.107Z,101318.81
2019-05-28T09:02:32.508Z,101319.62
2019-05-28T09:05:24.695Z,101314.58
2019-05-28T09:07:42.644Z,101310.80
2019-05-28T09:10:17.033Z,101310.33
2019-05-28T09:12:50.386Z,101314.27
2019-05-28T09:15:23.236Z,101307.97
2019-05-28T09:17:58.000Z,101306.09
2019-05-28T09:20:34.284Z,101314.80
2019-05-28T09:23:06.768Z,101299.74
2019-05-28T09:25:39.665Z,101304.91
2019-05-28T09:28:28.417Z,101304.91
2019-05-28T09:30:47.815Z,101296.21
2019-05-28T09:33:23.780Z,101296.94
2019-05-28T09:36:09.026Z,101292.56
2019-05-28T09:38:40.701Z,101288.90
2019-05-28T09:41:12.938Z,101291.91
2019-05-28T09:43:46.066Z,101290.40
2019-05-28T09:46:18.749Z,101285.45
2019-05-28T09:48:51.561Z,101288.17
2019-05-28T09:51:25.781Z,101291.09
2019-05-28T09:54:00.707Z,101293.94
2019-05-28T09:56:33.412Z,101290.54
2019-05-28T09:59:10.273Z,101285.95
2019-05-28T10:01:48.260Z,101284.41
2019-05-28T10:04:44.055Z,101272.64
2019-05-28T10:07:00.285Z,101277.28
2019-05-28T10:09:33.298Z,101279.77
2019-05-28T10:12:06.796Z,101275.48
2019-05-28T10:14:44.160Z,101275.63
2019-05-28T10:17:16.043Z,101278.76
2019-05-28T10:19:48.549Z,101272.15
2019-05-28T10:22:20.795Z,101270.57
2019-05-28T10:24:52.925Z,101272.54
2019-05-28T10:27:25.363Z,101267.32
2019-05-28T10:29:57.593Z,101267.20
2019-05-28T10:32:29.805Z,101255.95
2019-05-28T10:35:04.185Z,101260.44
2019-05-28T10:37:36.053Z,101267.28
2019-05-28T10:40:14.897Z,101256.27
2019-05-28T10:42:47.127Z,101246.19
2019-05-28T10:45:21.939Z,101260.99
2019-05-28T10:47:55.607Z,101259.73
2019-05-28T10:50:31.539Z,101241.73
2019-05-28T10:53:04.076Z,101246.90
2019-05-28T10:55:36.391Z,101239.98
2019-05-28T10:58:08.638Z,101235.73
2019-05-28T11:00:41.869Z,101224.80
2019-05-28T11:03:15.944Z,101228.44
2019-05-28T11:05:49.234Z,101235.38
2019-05-28T11:08:21.839Z,101235.77
2019-05-28T11:10:56.202Z,101235.97
2019-05-28T11:13:28.480Z,101234.85
2019-05-28T11:16:00.957Z,101223.61
2019-05-28T11:18:33.327Z,101217.61
2019-05-28T11:21:09.560Z,101212.50
2019-05-28T11:23:40.871Z,101208.39
2019-05-28T11:26:13.346Z,101208.29
2019-05-28T11:28:45.547Z,101216.36
2019-05-28T11:31:18.904Z,101209.97
2019-05-28T11:33:52.106Z,101210.70
2019-05-28T11:36:27.403Z,101203.70
2019-05-28T11:38:59.596Z,101205.75
2019-05-28T11:41:42.043Z,101205.18
2019-05-28T11:44:06.871Z,101206.76
2019-05-28T11:46:40.725Z,101201.25
2019-05-28T11:49:13.312Z,101199.25
2019-05-28T11:51:46.022Z,101200.05
2019-05-28T11:54:18.768Z,101199.34
2019-05-28T11:56:51.179Z,101201.52
2019-05-28T11:59:23.344Z,101195.39
2019-05-28T12:01:56.590Z,101184.47
2019-05-28T12:04:29.711Z,101182.88
2019-05-28T12:07:02.150Z,101184.27
2019-05-28T12:09:34.456Z,101195.33
2019-05-28T12:12:07.657Z,101185.42
2019-05-28T12:14:40.165Z,101182.34
2019-05-28T12:17:12.914Z,101186.26
2019-05-28T12:19:45.709Z,101181.90
2019-05-28T12:22:18.168Z,101186.78
2019-05-28T12:24:50.487Z,101184.91
2019-05-28T12:27:22.831Z,101181.52
2019-05-28T12:29:54.964Z,101168.39
2019-05-28T12:32:32.955Z,101164.30
2019-05-28T12:35:26.387Z,101164.30
2019-05-28T12:37:48.886Z,101167.75
2019-05-28T12:40:20.695Z,101170.42
2019-05-28T12:42:54.823Z,101157.98
2019-05-28T12:45:35.614Z,101163.98
2019-05-28T12:48:12.570Z,101162.87
2019-05-28T12:50:34.830Z,101169.50
2019-05-28T12:53:07.518Z,101158.06
2019-05-28T12:55:39.724Z,101155.47
2019-05-28T12:58:17.097Z,101153.98
2019-05-28T13:00:49.517Z,101149.40
2019-05-28T13:03:23.600Z,101159.72
2019-05-28T13:05:56.034Z,101150.33
2019-05-28T13:08:29.262Z,101146.35
2019-05-28T13:11:02.918Z,101145.36
2019-05-28T13:13:35.402Z,101152.58
2019-05-28T13:16:08.457Z,101148.03
2019-05-28T13:18:41.811Z,101145.14
2019-05-28T13:21:14.778Z,101138.44
2019-05-28T13:23:47.013Z,101134.46
2019-05-28T13:26:19.511Z,101137.52
2019-05-28T13:28:51.968Z,101142.90
2019-05-28T13:31:25.405Z,101133.44
2019-05-28T13:33:58.986Z,101129.41
2019-05-28T13:36:31.316Z,101128.41
2019-05-28T13:39:04.105Z,101130.40
2019-05-28T13:41:37.807Z,101122.88
2019-05-28T13:44:10.283Z,101131.03
2019-05-28T13:46:44.840Z,101131.28
2019-05-28T13:49:20.923Z,101133.95
2019-05-28T13:52:11.060Z,101119.71
2019-05-28T13:54:29.394Z,101121.17
2019-05-28T13:57:01.740Z,101106.74
2019-05-28T13:59:34.929Z,101080.52
2019-05-28T14:02:09.617Z,101102.53
2019-05-28T14:04:48.551Z,101107.46
2019-05-28T14:07:20.892Z,101099.09
2019-05-28T14:09:53.647Z,101095.65
2019-05-28T14:12:26.011Z,101101.05
2019-05-28T14:14:58.748Z,101090.16
2019-05-28T14:17:31.128Z,101099.31
2019-05-28T14:20:07.880Z,101100.52
2019-05-28T14:22:40.863Z,101097.05
2019-05-28T14:25:13.861Z,101098.08
2019-05-28T14:27:45.969Z,101084.05
2019-05-28T14:30:20.493Z,101085.23
2019-05-28T14:32:53.300Z,101085.11
2019-05-28T14:35:26.490Z,101083.63
2019-05-28T14:37:58.914Z,101082.06
2019-05-28T14:40:31.527Z,101080.20
2019-05-28T14:43:04.157Z,101077.92
2019-05-28T14:45:36.363Z,101080.60
2019-05-28T14:48:08.685Z,101071.33
2019-05-28T14:50:42.415Z,101075.00
2019-05-28T14:53:14.661Z,101081.84
2019-05-28T14:55:46.871Z,101080.23
2019-05-28T14:58:19.077Z,101076.46
2019-05-28T15:00:52.255Z,101072.16
2019-05-28T15:03:27.478Z,101073.25
2019-05-28T15:06:00.914Z,101072.80
2019-05-28T15:08:33.190Z,101077.09
2019-05-28T15:11:06.016Z,101075.50
2019-05-28T15:13:38.379Z,101079.08
2019-05-28T15:16:10.956Z,101068.37
2019-05-28T15:18:43.482Z,101070.08
2019-05-28T15:21:17.974Z,101070.52
2019-05-28T15:23:50.303Z,101067.78
2019-05-28T15:26:22.981Z,101068.17
2019-05-28T15:28:56.446Z,101076.63
2019-05-28T15:31:28.759Z,101068.20
2019-05-28T15:34:04.118Z,101070.52
2019-05-28T15:36:36.365Z,101066.39
2019-05-28T15:39:08.727Z,101075.45
2019-05-28T15:41:43.049Z,101068.90
2019-05-28T15:44:15.451Z,101075.83
2019-05-28T15:46:47.743Z,101071.94
2019-05-28T15:49:20.063Z,101071.94
2019-05-28T15:52:05.179Z,101066.69
2019-05-28T15:54:25.422Z,101063.71
2019-05-28T15:56:58.570Z,101066.19
2019-05-28T15:59:30.830Z,101064.41
2019-05-28T16:02:04.440Z,101068.30
2019-05-28T16:04:47.755Z,101063.31
2019-05-28T16:07:23.422Z,101065.26
2019-05-28T16:09:57.082Z,101064.77
2019-05-28T16:12:29.025Z,101057.27
2019-05-28T16:15:00.950Z,101053.95
2019-05-28T16:17:33.100Z,101059.33
2019-05-28T16:20:07.163Z,101051.94
2019-05-28T16:22:39.438Z,101054.44
2019-05-28T16:25:12.118Z,101048.66
2019-05-28T16:27:44.407Z,101049.88
2019-05-28T16:30:18.277Z,101051.69
2019-05-28T16:32:49.890Z,101046.31
2019-05-28T16:35:21.810Z,101039.72
2019-05-28T16:37:54.055Z,101044.64
2019-05-28T16:40:26.573Z,101047.92
2019-05-28T16:42:58.988Z,101042.25
2019-05-28T16:45:31.179Z,101046.20
2019-05-28T16:48:03.516Z,101050.36
2019-05-28T16:50:35.677Z,101048.11
2019-05-28T16:53:08.232Z,101051.98
2019-05-28T16:55:42.118Z,101053.16
2019-05-28T16:58:14.529Z,101050.13
2019-05-28T17:00:46.857Z,101053.67
2019-05-28T17:03:19.225Z,101050.52
2019-05-28T17:05:51.484Z,101047.50
2019-05-28T17:08:25.763Z,101050.13
2019-05-28T17:10:58.041Z,101047.98
2019-05-28T17:13:31.325Z,101049.72
2019-05-28T17:16:03.375Z,101048.53
2019-05-28T17:18:39.448Z,101048.41
2019-05-28T17:21:11.928Z,101051.88
2019-05-28T17:23:44.668Z,101047.28
2019-05-28T17:26:17.053Z,101050.03
2019-05-28T17:28:49.785Z,101048.61
2019-05-28T17:31:23.879Z,101051.42
2019-05-28T17:33:57.241Z,101054.92
2019-05-28T17:36:29.447Z,101053.83
2019-05-28T17:39:01.695Z,101059.77
2019-05-28T17:41:37.900Z,101058.94
2019-05-28T17:44:09.642Z,101058.11
2019-05-28T17:46:41.810Z,101055.14
2019-05-28T17:49:15.110Z,101055.98
2019-05-28T17:51:47.892Z,101067.42
2019-05-28T17:54:20.738Z,101058.70
2019-05-28T17:56:53.002Z,101068.38
2019-05-28T17:59:25.884Z,101067.91
2019-05-28T18:02:03.423Z,101066.98
2019-05-28T18:04:35.957Z,101071.47
2019-05-28T18:07:08.397Z,101068.08
2019-05-28T18:09:44.475Z,101072.11
2019-05-28T18:12:19.327Z,101075.77
2019-05-28T18:14:53.444Z,101076.89
2019-05-28T18:17:26.460Z,101078.70
2019-05-28T18:19:59.446Z,101088.36
2019-05-28T18:22:31.789Z,101087.59
2019-05-28T18:25:05.634Z,101085.48
2019-05-28T18:27:38.080Z,101090.28
2019-05-28T18:30:12.133Z,101082.51
2019-05-28T18:32:43.641Z,101086.75
2019-05-28T18:35:15.821Z,101082.53
2019-05-28T18:37:47.987Z,101089.78
2019-05-28T18:40:20.563Z,101095.31
2019-05-28T18:42:52.867Z,101092.73
2019-05-28T18:45:25.326Z,101093.45
2019-05-28T18:47:57.785Z,101090.50
2019-05-28T18:50:30.064Z,101091.36
2019-05-28T18:53:02.670Z,101089.00
2019-05-28T18:55:36.476Z,101094.13
2019-05-28T18:58:08.856Z,101094.98
2019-05-28T19:00:41.555Z,101097.52
2019-05-28T19:03:14.308Z,101095.31
2019-05-28T19:05:48.016Z,101098.45
2019-05-28T19:08:21.558Z,101099.41
2019-05-28T19:10:59.890Z,101101.33
2019-05-28T19:13:32.354Z,101097.44
2019-05-28T19:16:05.725Z,101100.27
2019-05-28T19:18:40.044Z,101099.97
2019-05-28T19:21:12.391Z,101104.35
2019-05-28T19:23:45.104Z,101090.03
2019-05-28T19:26:19.052Z,101090.75
2019-05-28T19:28:51.432Z,101088.98
2019-05-28T19:31:23.707Z,101084.17
2019-05-28T19:33:56.608Z,101084.59
2019-05-28T19:36:29.457Z,101085.34
2019-05-28T19:39:02.711Z,101087.13
2019-05-28T19:41:50.418Z,101087.22
2019-05-28T19:44:10.598Z,101085.77
2019-05-28T19:46:42.852Z,101091.11
2019-05-28T19:49:14.996Z,101085.67
2019-05-28T19:51:47.210Z,101087.97
2019-05-28T19:54:20.084Z,101090.30
2019-05-28T19:56:52.873Z,101084.77
2019-05-28T19:59:25.113Z,101082.66
2019-05-28T20:01:57.395Z,101094.16
2019-05-28T20:04:30.187Z,101094.67
2019-05-28T20:07:02.484Z,101097.19
2019-05-28T20:09:35.037Z,101096.30
2019-05-28T20:12:12.797Z,101095.83
2019-05-28T20:14:43.078Z,101097.67
2019-05-28T20:17:16.770Z,101094.84
2019-05-28T20:19:51.352Z,101097.46
2019-05-28T20:22:23.304Z,101097.13
2019-05-28T20:24:59.123Z,101089.25
2019-05-28T20:27:33.432Z,101101.08
2019-05-28T20:30:11.483Z,101108.63
2019-05-28T20:32:43.715Z,101109.55
2019-05-28T20:35:16.135Z,101109.09
2019-05-28T20:37:48.328Z,101111.69
2019-05-28T20:40:20.952Z,101118.34
2019-05-28T20:42:54.347Z,101115.63
2019-05-28T20:45:27.828Z,101118.15
2019-05-28T20:48:00.511Z,101113.64
2019-05-28T20:50:33.021Z,101108.41
2019-05-28T20:53:06.618Z,101112.36
2019-05-28T20:55:38.986Z,101110.13
2019-05-28T20:58:11.278Z,101107.61
2019-05-28T21:00:43.754Z,101107.72
2019-05-28T21:03:16.297Z,101105.44
2019-05-28T21:05:48.666Z,101096.94
2019-05-28T21:08:20.953Z,101097.48
2019-05-28T21:10:53.210Z,101095.09
2019-05-28T21:13:27.970Z,101092.05
2019-05-28T21:16:00.146Z,101091.44
2019-05-28T21:18:32.363Z,101095.00
2019-05-28T21:21:04.689Z,101083.78
2019-05-28T21:23:36.950Z,101098.48
2019-05-28T21:26:09.313Z,101093.94
2019-05-28T21:28:41.478Z,101097.26
2019-05-28T21:31:13.839Z,101092.79
2019-05-28T21:33:46.138Z,101097.98
2019-05-28T21:36:18.688Z,101086.73
2019-05-28T21:38:51.186Z,101097.59
2019-05-28T21:41:23.426Z,101093.19
2019-05-28T21:43:55.917Z,101097.50
2019-05-28T21:46:28.493Z,101097.45
2019-05-28T21:49:00.926Z,101100.77
2019-05-28T21:51:33.042Z,101108.64
2019-05-28T21:54:05.258Z,101102.08
2019-05-28T21:56:37.572Z,101098.47
2019-05-28T21:59:13.514Z,101096.43
2019-05-28T22:01:47.030Z,101101.28
2019-05-28T22:04:19.314Z,101103.99
2019-05-28T22:06:51.481Z,101104.72
2019-05-28T22:09:23.867Z,101106.88
2019-05-28T22:11:57.700Z,101097.34
2019-05-28T22:14:32.040Z,101102.00
2019-05-28T22:17:05.490Z,101097.22
2019-05-28T22:19:39.078Z,101096.43
2019-05-28T22:22:11.553Z,101096.70
2019-05-28T22:24:44.214Z,101097.93
2019-05-28T22:27:16.572Z,101095.67
2019-05-28T22:29:48.976Z,101101.04
2019-05-28T22:32:21.310Z,101093.99
2019-05-28T22:34:53.506Z,101089.80
2019-05-28T22:37:25.930Z,101091.03
2019-05-28T22:39:59.340Z,101092.78
2019-05-28T22:42:32.756Z,101099.09
2019-05-28T22:45:07.517Z,101087.61
2019-05-28T22:47:39.750Z,101098.83
2019-05-28T22:50:21.876Z,101090.13
2019-05-28T22:52:47.263Z,101091.99
2019-05-28T22:55:19.841Z,101090.05
2019-05-28T22:57:52.373Z,101092.63
2019-05-28T23:00:27.390Z,101090.48
2019-05-28T23:03:00.834Z,101089.08
2019-05-28T23:05:33.475Z,101091.79
2019-05-28T23:08:06.209Z,101092.44
2019-05-28T23:10:38.537Z,101091.13
2019-05-28T23:13:11.243Z,101091.91
2019-05-28T23:15:44.714Z,101086.68
2019-05-28T23:18:17.086Z,101086.69
2019-05-28T23:20:50.278Z,101077.17
2019-05-28T23:23:22.608Z,101087.70
2019-05-28T23:25:54.842Z,101075.98
2019-05-28T23:28:27.123Z,101083.05
2019-05-28T23:30:59.668Z,101071.09
2019-05-28T23:33:32.076Z,101076.20
2019-05-28T23:36:04.732Z,101080.42
2019-05-28T23:38:36.823Z,101079.62
2019-05-28T23:41:09.451Z,101080.31
2019-05-28T23:43:41.793Z,101081.83
2019-05-28T23:46:14.422Z,101075.01
2019-05-28T23:48:50.275Z,101081.48
2019-05-28T23:51:22.387Z,101078.39
2019-05-28T23:53:54.475Z,101077.80
2019-05-28T23:56:27.017Z,101073.48
2019-05-28T23:58:59.565Z,101078.25
